sensor_id;sensor_type;location;lat;lon;timestamp;P1;durP1;ratioP1;P2;durP2;ratioP2
68870;SDS011;55906;52.278;6.808;2022-08-21T00:00:13;7.50;;;4.32;;
68870;SDS011;55906;52.278;6.808;2022-08-21T00:02:44;6.73;;;3.80;;
68870;SDS011;55906;52.278;6.808;2022-08-21T00:05:12;7.20;;;4.75;;
68870;SDS011;55906;52.278;6.808;2022-08-21T00:07:39;5.88;;;4.07;;
68870;SDS011;55906;52.278;6.808;2022-08-21T00:10:06;6.90;;;4.28;;
68870;SDS011;55906;52.278;6.808;2022-08-21T00:12:33;6.97;;;4.25;;
68870;SDS011;55906;52.278;6.808;2022-08-21T00:15:01;8.17;;;5.67;;
68870;SDS011;55906;52.278;6.808;2022-08-21T00:17:30;9.63;;;5.13;;
68870;SDS011;55906;52.278;6.808;2022-08-21T00:19:56;9.00;;;5.30;;
68870;SDS011;55906;52.278;6.808;2022-08-21T00:22:23;7.32;;;4.80;;
68870;SDS011;55906;52.278;6.808;2022-08-21T00:24:49;7.45;;;4.20;;
68870;SDS011;55906;52.278;6.808;2022-08-21T00:27:16;8.93;;;4.70;;
68870;SDS011;55906;52.278;6.808;2022-08-21T00:29:43;8.43;;;5.07;;
68870;SDS011;55906;52.278;6.808;2022-08-21T00:32:12;7.78;;;5.05;;
68870;SDS011;55906;52.278;6.808;2022-08-21T00:34:45;7.95;;;4.40;;
68870;SDS011;55906;52.278;6.808;2022-08-21T00:37:11;8.07;;;5.07;;
68870;SDS011;55906;52.278;6.808;2022-08-21T00:39:40;9.97;;;4.90;;
68870;SDS011;55906;52.278;6.808;2022-08-21T00:42:08;9.70;;;5.00;;
68870;SDS011;55906;52.278;6.808;2022-08-21T00:44:35;5.68;;;4.35;;
68870;SDS011;55906;52.278;6.808;2022-08-21T00:47:01;7.70;;;5.03;;
68870;SDS011;55906;52.278;6.808;2022-08-21T00:49:30;7.53;;;4.20;;
68870;SDS011;55906;52.278;6.808;2022-08-21T00:51:57;7.30;;;4.07;;
68870;SDS011;55906;52.278;6.808;2022-08-21T00:54:27;7.18;;;4.78;;
68870;SDS011;55906;52.278;6.808;2022-08-21T00:56:59;9.13;;;4.53;;
68870;SDS011;55906;52.278;6.808;2022-08-21T00:59:28;8.02;;;5.57;;
68870;SDS011;55906;52.278;6.808;2022-08-21T01:01:58;6.68;;;4.57;;
68870;SDS011;55906;52.278;6.808;2022-08-21T01:04:26;8.47;;;5.13;;
68870;SDS011;55906;52.278;6.808;2022-08-21T01:06:54;7.70;;;4.55;;
68870;SDS011;55906;52.278;6.808;2022-08-21T01:09:21;8.02;;;4.50;;
68870;SDS011;55906;52.278;6.808;2022-08-21T01:11:47;5.55;;;4.05;;
68870;SDS011;55906;52.278;6.808;2022-08-21T01:14:14;7.40;;;4.47;;
68870;SDS011;55906;52.278;6.808;2022-08-21T01:16:45;5.93;;;3.80;;
68870;SDS011;55906;52.278;6.808;2022-08-21T01:19:16;6.35;;;4.05;;
68870;SDS011;55906;52.278;6.808;2022-08-21T01:21:44;6.43;;;4.20;;
68870;SDS011;55906;52.278;6.808;2022-08-21T01:24:11;6.13;;;3.80;;
68870;SDS011;55906;52.278;6.808;2022-08-21T01:26:38;5.55;;;3.53;;
68870;SDS011;55906;52.278;6.808;2022-08-21T01:29:09;6.07;;;3.73;;
68870;SDS011;55906;52.278;6.808;2022-08-21T01:31:41;4.70;;;3.40;;
68870;SDS011;55906;52.278;6.808;2022-08-21T01:34:08;5.68;;;3.90;;
68870;SDS011;55906;52.278;6.808;2022-08-21T01:36:34;5.32;;;3.50;;
68870;SDS011;55906;52.278;6.808;2022-08-21T01:39:03;9.23;;;3.63;;
68870;SDS011;55906;52.278;6.808;2022-08-21T01:41:31;5.17;;;3.40;;
68870;SDS011;55906;52.278;6.808;2022-08-21T01:43:58;6.43;;;4.40;;
68870;SDS011;55906;52.278;6.808;2022-08-21T01:46:24;5.05;;;3.40;;
68870;SDS011;55906;52.278;6.808;2022-08-21T01:48:51;7.35;;;4.63;;
68870;SDS011;55906;52.278;6.808;2022-08-21T01:51:17;6.20;;;4.15;;
68870;SDS011;55906;52.278;6.808;2022-08-21T01:53:44;6.30;;;4.37;;
68870;SDS011;55906;52.278;6.808;2022-08-21T01:59:29;6.47;;;4.60;;
68870;SDS011;55906;52.278;6.808;2022-08-21T02:01:55;6.82;;;4.03;;
68870;SDS011;55906;52.278;6.808;2022-08-21T02:04:22;7.40;;;4.13;;
68870;SDS011;55906;52.278;6.808;2022-08-21T02:06:50;8.33;;;4.37;;
68870;SDS011;55906;52.278;6.808;2022-08-21T02:09:16;7.13;;;4.05;;
68870;SDS011;55906;52.278;6.808;2022-08-21T02:11:43;6.07;;;3.85;;
68870;SDS011;55906;52.278;6.808;2022-08-21T02:14:11;5.47;;;4.03;;
68870;SDS011;55906;52.278;6.808;2022-08-21T02:16:41;5.45;;;3.88;;
68870;SDS011;55906;52.278;6.808;2022-08-21T02:19:09;6.33;;;3.83;;
68870;SDS011;55906;52.278;6.808;2022-08-21T02:21:37;6.35;;;3.65;;
68870;SDS011;55906;52.278;6.808;2022-08-21T02:24:04;5.13;;;3.65;;
68870;SDS011;55906;52.278;6.808;2022-08-21T02:26:31;7.10;;;3.38;;
68870;SDS011;55906;52.278;6.808;2022-08-21T02:28:58;5.90;;;4.10;;
68870;SDS011;55906;52.278;6.808;2022-08-21T02:31:24;5.87;;;3.80;;
68870;SDS011;55906;52.278;6.808;2022-08-21T02:33:52;5.60;;;4.10;;
68870;SDS011;55906;52.278;6.808;2022-08-21T02:36:19;5.60;;;4.07;;
68870;SDS011;55906;52.278;6.808;2022-08-21T02:38:48;6.47;;;3.95;;
68870;SDS011;55906;52.278;6.808;2022-08-21T02:41:16;5.35;;;3.55;;
68870;SDS011;55906;52.278;6.808;2022-08-21T02:43:43;7.13;;;3.97;;
68870;SDS011;55906;52.278;6.808;2022-08-21T02:46:11;6.43;;;4.07;;
68870;SDS011;55906;52.278;6.808;2022-08-21T02:48:40;6.13;;;3.85;;
68870;SDS011;55906;52.278;6.808;2022-08-21T02:51:10;6.20;;;4.72;;
68870;SDS011;55906;52.278;6.808;2022-08-21T02:53:39;6.30;;;3.60;;
68870;SDS011;55906;52.278;6.808;2022-08-21T02:56:07;5.10;;;3.70;;
68870;SDS011;55906;52.278;6.808;2022-08-21T02:58:36;5.47;;;3.70;;
68870;SDS011;55906;52.278;6.808;2022-08-21T03:01:09;7.15;;;4.15;;
68870;SDS011;55906;52.278;6.808;2022-08-21T03:03:37;7.20;;;4.70;;
68870;SDS011;55906;52.278;6.808;2022-08-21T03:06:04;5.47;;;4.05;;
68870;SDS011;55906;52.278;6.808;2022-08-21T03:08:33;5.87;;;3.73;;
68870;SDS011;55906;52.278;6.808;2022-08-21T03:11:00;4.80;;;3.63;;
68870;SDS011;55906;52.278;6.808;2022-08-21T03:13:27;6.18;;;4.00;;
68870;SDS011;55906;52.278;6.808;2022-08-21T03:15:54;10.95;;;4.38;;
68870;SDS011;55906;52.278;6.808;2022-08-21T03:18:21;5.05;;;3.60;;
68870;SDS011;55906;52.278;6.808;2022-08-21T03:20:50;8.33;;;4.57;;
68870;SDS011;55906;52.278;6.808;2022-08-21T03:23:17;6.50;;;4.30;;
68870;SDS011;55906;52.278;6.808;2022-08-21T03:25:45;5.82;;;4.20;;
68870;SDS011;55906;52.278;6.808;2022-08-21T03:28:14;7.50;;;4.85;;
68870;SDS011;55906;52.278;6.808;2022-08-21T03:30:42;7.40;;;4.57;;
68870;SDS011;55906;52.278;6.808;2022-08-21T03:33:10;7.43;;;5.53;;
68870;SDS011;55906;52.278;6.808;2022-08-21T03:35:37;7.68;;;5.93;;
68870;SDS011;55906;52.278;6.808;2022-08-21T03:38:05;9.35;;;4.95;;
68870;SDS011;55906;52.278;6.808;2022-08-21T03:40:32;9.20;;;5.15;;
68870;SDS011;55906;52.278;6.808;2022-08-21T03:43:00;7.53;;;5.40;;
68870;SDS011;55906;52.278;6.808;2022-08-21T03:45:28;8.37;;;5.70;;
68870;SDS011;55906;52.278;6.808;2022-08-21T03:47:56;7.78;;;5.60;;
68870;SDS011;55906;52.278;6.808;2022-08-21T03:50:26;8.10;;;5.95;;
68870;SDS011;55906;52.278;6.808;2022-08-21T03:52:54;8.43;;;5.50;;
68870;SDS011;55906;52.278;6.808;2022-08-21T03:55:22;6.78;;;4.88;;
68870;SDS011;55906;52.278;6.808;2022-08-21T03:57:49;7.27;;;4.60;;
68870;SDS011;55906;52.278;6.808;2022-08-21T04:00:18;7.25;;;4.75;;
68870;SDS011;55906;52.278;6.808;2022-08-21T04:02:45;6.82;;;5.22;;
68870;SDS011;55906;52.278;6.808;2022-08-21T04:05:13;7.70;;;4.32;;
68870;SDS011;55906;52.278;6.808;2022-08-21T04:07:51;5.95;;;4.45;;
68870;SDS011;55906;52.278;6.808;2022-08-21T04:10:19;6.63;;;4.70;;
68870;SDS011;55906;52.278;6.808;2022-08-21T04:12:46;6.28;;;4.35;;
68870;SDS011;55906;52.278;6.808;2022-08-21T04:15:12;5.90;;;4.00;;
68870;SDS011;55906;52.278;6.808;2022-08-21T04:17:41;6.10;;;4.65;;
68870;SDS011;55906;52.278;6.808;2022-08-21T04:20:08;6.03;;;4.10;;
68870;SDS011;55906;52.278;6.808;2022-08-21T04:22:35;8.60;;;5.80;;
68870;SDS011;55906;52.278;6.808;2022-08-21T04:25:01;8.02;;;6.32;;
68870;SDS011;55906;52.278;6.808;2022-08-21T04:27:28;11.15;;;6.95;;
68870;SDS011;55906;52.278;6.808;2022-08-21T04:29:55;8.82;;;6.30;;
68870;SDS011;55906;52.278;6.808;2022-08-21T04:32:22;6.75;;;5.20;;
68870;SDS011;55906;52.278;6.808;2022-08-21T04:34:50;6.70;;;5.20;;
68870;SDS011;55906;52.278;6.808;2022-08-21T04:37:16;7.32;;;5.25;;
68870;SDS011;55906;52.278;6.808;2022-08-21T04:39:43;8.13;;;5.78;;
68870;SDS011;55906;52.278;6.808;2022-08-21T04:42:10;11.88;;;6.05;;
68870;SDS011;55906;52.278;6.808;2022-08-21T04:44:36;9.98;;;6.20;;
68870;SDS011;55906;52.278;6.808;2022-08-21T04:47:03;11.53;;;7.90;;
68870;SDS011;55906;52.278;6.808;2022-08-21T04:49:30;8.68;;;5.47;;
68870;SDS011;55906;52.278;6.808;2022-08-21T04:51:59;11.65;;;6.85;;
68870;SDS011;55906;52.278;6.808;2022-08-21T04:54:26;9.10;;;6.35;;
68870;SDS011;55906;52.278;6.808;2022-08-21T04:56:53;7.97;;;5.90;;
68870;SDS011;55906;52.278;6.808;2022-08-21T04:59:26;7.47;;;5.03;;
68870;SDS011;55906;52.278;6.808;2022-08-21T05:01:57;13.73;;;8.93;;
68870;SDS011;55906;52.278;6.808;2022-08-21T05:04:25;9.88;;;6.75;;
68870;SDS011;55906;52.278;6.808;2022-08-21T05:06:55;8.75;;;5.88;;
68870;SDS011;55906;52.278;6.808;2022-08-21T05:09:26;9.55;;;5.15;;
68870;SDS011;55906;52.278;6.808;2022-08-21T05:11:55;9.03;;;6.43;;
68870;SDS011;55906;52.278;6.808;2022-08-21T05:14:22;10.73;;;7.03;;
68870;SDS011;55906;52.278;6.808;2022-08-21T05:16:50;8.40;;;5.88;;
68870;SDS011;55906;52.278;6.808;2022-08-21T05:19:16;8.40;;;5.47;;
68870;SDS011;55906;52.278;6.808;2022-08-21T05:21:44;7.90;;;5.82;;
68870;SDS011;55906;52.278;6.808;2022-08-21T05:24:12;8.10;;;5.20;;
68870;SDS011;55906;52.278;6.808;2022-08-21T05:26:41;8.68;;;5.38;;
68870;SDS011;55906;52.278;6.808;2022-08-21T05:29:08;9.02;;;5.53;;
68870;SDS011;55906;52.278;6.808;2022-08-21T05:31:36;6.50;;;4.60;;
68870;SDS011;55906;52.278;6.808;2022-08-21T05:34:02;6.45;;;5.25;;
68870;SDS011;55906;52.278;6.808;2022-08-21T05:36:29;7.37;;;5.03;;
68870;SDS011;55906;52.278;6.808;2022-08-21T05:38:56;7.28;;;5.30;;
68870;SDS011;55906;52.278;6.808;2022-08-21T05:41:22;9.35;;;5.88;;
68870;SDS011;55906;52.278;6.808;2022-08-21T05:43:50;8.60;;;4.75;;
68870;SDS011;55906;52.278;6.808;2022-08-21T05:46:17;7.85;;;4.78;;
68870;SDS011;55906;52.278;6.808;2022-08-21T05:48:43;9.37;;;5.77;;
68870;SDS011;55906;52.278;6.808;2022-08-21T05:51:15;7.82;;;5.40;;
68870;SDS011;55906;52.278;6.808;2022-08-21T05:53:42;7.40;;;4.80;;
68870;SDS011;55906;52.278;6.808;2022-08-21T05:56:11;10.13;;;5.75;;
68870;SDS011;55906;52.278;6.808;2022-08-21T05:58:38;9.05;;;5.65;;
68870;SDS011;55906;52.278;6.808;2022-08-21T06:01:07;11.47;;;6.53;;
68870;SDS011;55906;52.278;6.808;2022-08-21T06:03:35;11.30;;;7.30;;
68870;SDS011;55906;52.278;6.808;2022-08-21T06:06:03;9.80;;;5.55;;
68870;SDS011;55906;52.278;6.808;2022-08-21T06:08:31;12.07;;;7.20;;
68870;SDS011;55906;52.278;6.808;2022-08-21T06:10:58;11.85;;;6.43;;
68870;SDS011;55906;52.278;6.808;2022-08-21T06:13:25;11.13;;;6.10;;
68870;SDS011;55906;52.278;6.808;2022-08-21T06:16:00;9.73;;;6.68;;
68870;SDS011;55906;52.278;6.808;2022-08-21T06:18:30;9.77;;;6.55;;
68870;SDS011;55906;52.278;6.808;2022-08-21T06:20:57;9.02;;;5.15;;
68870;SDS011;55906;52.278;6.808;2022-08-21T06:23:23;11.43;;;6.80;;
68870;SDS011;55906;52.278;6.808;2022-08-21T06:25:50;10.17;;;6.70;;
68870;SDS011;55906;52.278;6.808;2022-08-21T06:28:17;11.80;;;6.93;;
68870;SDS011;55906;52.278;6.808;2022-08-21T06:30:43;13.30;;;8.05;;
68870;SDS011;55906;52.278;6.808;2022-08-21T06:33:10;12.82;;;7.20;;
68870;SDS011;55906;52.278;6.808;2022-08-21T06:35:38;16.42;;;7.15;;
68870;SDS011;55906;52.278;6.808;2022-08-21T06:38:04;10.97;;;7.10;;
68870;SDS011;55906;52.278;6.808;2022-08-21T06:40:32;9.63;;;6.85;;
68870;SDS011;55906;52.278;6.808;2022-08-21T06:43:04;9.60;;;6.40;;
68870;SDS011;55906;52.278;6.808;2022-08-21T06:45:32;8.43;;;6.07;;
68870;SDS011;55906;52.278;6.808;2022-08-21T06:47:58;12.52;;;6.53;;
68870;SDS011;55906;52.278;6.808;2022-08-21T06:50:25;11.13;;;6.30;;
68870;SDS011;55906;52.278;6.808;2022-08-21T06:52:59;10.55;;;7.05;;
68870;SDS011;55906;52.278;6.808;2022-08-21T06:55:26;7.85;;;5.47;;
68870;SDS011;55906;52.278;6.808;2022-08-21T06:57:53;8.13;;;5.75;;
68870;SDS011;55906;52.278;6.808;2022-08-21T07:00:19;8.25;;;6.07;;
68870;SDS011;55906;52.278;6.808;2022-08-21T07:02:46;8.47;;;5.60;;
68870;SDS011;55906;52.278;6.808;2022-08-21T07:05:13;10.35;;;6.43;;
68870;SDS011;55906;52.278;6.808;2022-08-21T07:07:40;12.02;;;6.65;;
68870;SDS011;55906;52.278;6.808;2022-08-21T07:10:08;9.65;;;6.22;;
68870;SDS011;55906;52.278;6.808;2022-08-21T07:12:35;11.13;;;6.82;;
68870;SDS011;55906;52.278;6.808;2022-08-21T07:15:02;9.37;;;6.23;;
68870;SDS011;55906;52.278;6.808;2022-08-21T07:17:29;8.65;;;5.63;;
68870;SDS011;55906;52.278;6.808;2022-08-21T07:19:56;7.43;;;4.95;;
68870;SDS011;55906;52.278;6.808;2022-08-21T07:22:23;12.73;;;5.95;;
68870;SDS011;55906;52.278;6.808;2022-08-21T07:24:52;8.95;;;5.15;;
68870;SDS011;55906;52.278;6.808;2022-08-21T07:27:20;8.03;;;4.37;;
68870;SDS011;55906;52.278;6.808;2022-08-21T07:29:47;11.75;;;5.00;;
68870;SDS011;55906;52.278;6.808;2022-08-21T07:32:14;10.98;;;4.90;;
68870;SDS011;55906;52.278;6.808;2022-08-21T07:34:40;6.32;;;3.88;;
68870;SDS011;55906;52.278;6.808;2022-08-21T07:37:07;11.38;;;5.40;;
68870;SDS011;55906;52.278;6.808;2022-08-21T07:39:34;10.60;;;4.93;;
68870;SDS011;55906;52.278;6.808;2022-08-21T07:42:01;9.35;;;4.40;;
68870;SDS011;55906;52.278;6.808;2022-08-21T07:44:29;7.40;;;4.03;;
68870;SDS011;55906;52.278;6.808;2022-08-21T07:46:56;6.50;;;3.90;;
68870;SDS011;55906;52.278;6.808;2022-08-21T07:49:23;9.15;;;4.88;;
68870;SDS011;55906;52.278;6.808;2022-08-21T07:51:49;8.53;;;3.80;;
68870;SDS011;55906;52.278;6.808;2022-08-21T07:54:16;7.00;;;3.67;;
68870;SDS011;55906;52.278;6.808;2022-08-21T07:56:43;9.68;;;4.45;;
68870;SDS011;55906;52.278;6.808;2022-08-21T07:59:10;8.05;;;4.47;;
68870;SDS011;55906;52.278;6.808;2022-08-21T08:01:38;7.32;;;4.05;;
68870;SDS011;55906;52.278;6.808;2022-08-21T08:04:05;8.50;;;4.27;;
68870;SDS011;55906;52.278;6.808;2022-08-21T08:06:32;9.85;;;4.70;;
68870;SDS011;55906;52.278;6.808;2022-08-21T08:08:59;11.85;;;5.15;;
68870;SDS011;55906;52.278;6.808;2022-08-21T08:11:27;10.10;;;5.95;;
68870;SDS011;55906;52.278;6.808;2022-08-21T08:13:54;9.15;;;4.75;;
68870;SDS011;55906;52.278;6.808;2022-08-21T08:16:22;8.97;;;5.43;;
68870;SDS011;55906;52.278;6.808;2022-08-21T08:18:50;7.20;;;4.38;;
68870;SDS011;55906;52.278;6.808;2022-08-21T08:21:17;12.15;;;5.82;;
68870;SDS011;55906;52.278;6.808;2022-08-21T08:23:45;9.82;;;5.68;;
68870;SDS011;55906;52.278;6.808;2022-08-21T08:26:12;11.00;;;5.00;;
68870;SDS011;55906;52.278;6.808;2022-08-21T08:28:40;9.52;;;4.95;;
68870;SDS011;55906;52.278;6.808;2022-08-21T08:31:08;10.50;;;5.50;;
68870;SDS011;55906;52.278;6.808;2022-08-21T08:33:34;8.55;;;5.00;;
68870;SDS011;55906;52.278;6.808;2022-08-21T08:36:02;10.07;;;5.05;;
68870;SDS011;55906;52.278;6.808;2022-08-21T08:38:29;9.27;;;4.82;;
68870;SDS011;55906;52.278;6.808;2022-08-21T08:41:01;11.00;;;5.35;;
68870;SDS011;55906;52.278;6.808;2022-08-21T08:43:38;11.32;;;5.20;;
68870;SDS011;55906;52.278;6.808;2022-08-21T08:46:09;10.75;;;5.38;;
68870;SDS011;55906;52.278;6.808;2022-08-21T08:48:52;10.88;;;6.10;;
68870;SDS011;55906;52.278;6.808;2022-08-21T08:51:27;13.20;;;6.13;;
68870;SDS011;55906;52.278;6.808;2022-08-21T08:54:02;11.95;;;5.60;;
68870;SDS011;55906;52.278;6.808;2022-08-21T08:56:34;9.00;;;5.93;;
68870;SDS011;55906;52.278;6.808;2022-08-21T08:59:02;8.15;;;4.47;;
68870;SDS011;55906;52.278;6.808;2022-08-21T09:01:34;8.23;;;6.00;;
68870;SDS011;55906;52.278;6.808;2022-08-21T09:04:01;8.55;;;4.43;;
68870;SDS011;55906;52.278;6.808;2022-08-21T09:06:40;10.70;;;4.18;;
68870;SDS011;55906;52.278;6.808;2022-08-21T09:09:19;7.90;;;4.03;;
68870;SDS011;55906;52.278;6.808;2022-08-21T09:11:56;9.45;;;3.70;;
68870;SDS011;55906;52.278;6.808;2022-08-21T09:14:32;9.20;;;3.40;;
68870;SDS011;55906;52.278;6.808;2022-08-21T09:17:13;8.75;;;3.30;;
68870;SDS011;55906;52.278;6.808;2022-08-21T09:19:53;7.88;;;3.38;;
68870;SDS011;55906;52.278;6.808;2022-08-21T09:22:31;10.30;;;3.77;;
68870;SDS011;55906;52.278;6.808;2022-08-21T09:25:08;8.50;;;3.75;;
68870;SDS011;55906;52.278;6.808;2022-08-21T09:27:41;11.98;;;4.95;;
68870;SDS011;55906;52.278;6.808;2022-08-21T09:30:08;9.65;;;3.55;;
68870;SDS011;55906;52.278;6.808;2022-08-21T09:32:36;9.93;;;3.75;;
68870;SDS011;55906;52.278;6.808;2022-08-21T09:35:04;7.10;;;3.30;;
68870;SDS011;55906;52.278;6.808;2022-08-21T09:37:35;7.45;;;3.03;;
68870;SDS011;55906;52.278;6.808;2022-08-21T09:40:19;8.07;;;3.22;;
68870;SDS011;55906;52.278;6.808;2022-08-21T09:42:58;7.63;;;3.28;;
68870;SDS011;55906;52.278;6.808;2022-08-21T09:45:27;10.52;;;3.00;;
68870;SDS011;55906;52.278;6.808;2022-08-21T09:47:54;8.93;;;3.23;;
68870;SDS011;55906;52.278;6.808;2022-08-21T09:50:22;7.63;;;2.72;;
68870;SDS011;55906;52.278;6.808;2022-08-21T09:52:53;7.38;;;3.00;;
68870;SDS011;55906;52.278;6.808;2022-08-21T09:55:29;7.88;;;2.35;;
68870;SDS011;55906;52.278;6.808;2022-08-21T09:58:16;7.75;;;2.35;;
68870;SDS011;55906;52.278;6.808;2022-08-21T10:00:44;7.47;;;2.87;;
68870;SDS011;55906;52.278;6.808;2022-08-21T10:03:16;7.70;;;2.40;;
68870;SDS011;55906;52.278;6.808;2022-08-21T10:05:52;6.45;;;2.53;;
68870;SDS011;55906;52.278;6.808;2022-08-21T10:08:24;7.97;;;2.63;;
68870;SDS011;55906;52.278;6.808;2022-08-21T10:10:54;6.57;;;2.55;;
68870;SDS011;55906;52.278;6.808;2022-08-21T10:13:25;7.37;;;2.87;;
68870;SDS011;55906;52.278;6.808;2022-08-21T10:16:08;6.25;;;2.20;;
68870;SDS011;55906;52.278;6.808;2022-08-21T10:18:42;6.70;;;2.20;;
68870;SDS011;55906;52.278;6.808;2022-08-21T10:21:17;5.78;;;2.30;;
68870;SDS011;55906;52.278;6.808;2022-08-21T10:23:54;7.95;;;2.88;;
68870;SDS011;55906;52.278;6.808;2022-08-21T10:26:39;8.03;;;2.40;;
68870;SDS011;55906;52.278;6.808;2022-08-21T10:29:18;7.75;;;2.30;;
68870;SDS011;55906;52.278;6.808;2022-08-21T10:31:57;4.72;;;1.98;;
68870;SDS011;55906;52.278;6.808;2022-08-21T10:34:34;4.97;;;1.70;;
68870;SDS011;55906;52.278;6.808;2022-08-21T10:37:14;5.90;;;1.67;;
68870;SDS011;55906;52.278;6.808;2022-08-21T10:39:50;4.63;;;1.47;;
68870;SDS011;55906;52.278;6.808;2022-08-21T10:42:31;6.35;;;1.60;;
68870;SDS011;55906;52.278;6.808;2022-08-21T10:45:07;4.90;;;1.83;;
68870;SDS011;55906;52.278;6.808;2022-08-21T10:47:39;9.10;;;2.33;;
68870;SDS011;55906;52.278;6.808;2022-08-21T10:50:12;5.45;;;1.80;;
68870;SDS011;55906;52.278;6.808;2022-08-21T10:52:51;7.20;;;2.37;;
68870;SDS011;55906;52.278;6.808;2022-08-21T10:55:32;5.30;;;1.50;;
68870;SDS011;55906;52.278;6.808;2022-08-21T10:58:04;6.05;;;1.50;;
68870;SDS011;55906;52.278;6.808;2022-08-21T11:00:36;4.88;;;1.50;;
68870;SDS011;55906;52.278;6.808;2022-08-21T11:03:20;4.90;;;1.35;;
68870;SDS011;55906;52.278;6.808;2022-08-21T11:05:52;5.30;;;1.80;;
68870;SDS011;55906;52.278;6.808;2022-08-21T11:08:22;5.32;;;1.83;;
68870;SDS011;55906;52.278;6.808;2022-08-21T11:10:56;6.68;;;1.80;;
68870;SDS011;55906;52.278;6.808;2022-08-21T11:13:28;6.13;;;1.73;;
68870;SDS011;55906;52.278;6.808;2022-08-21T11:16:03;6.43;;;1.63;;
68870;SDS011;55906;52.278;6.808;2022-08-21T11:18:36;11.47;;;2.10;;
68870;SDS011;55906;52.278;6.808;2022-08-21T11:21:06;4.43;;;1.50;;
68870;SDS011;55906;52.278;6.808;2022-08-21T11:23:49;7.25;;;1.63;;
68870;SDS011;55906;52.278;6.808;2022-08-21T11:26:23;4.40;;;1.50;;
68870;SDS011;55906;52.278;6.808;2022-08-21T11:29:04;5.30;;;1.80;;
68870;SDS011;55906;52.278;6.808;2022-08-21T11:31:39;5.80;;;1.60;;
68870;SDS011;55906;52.278;6.808;2022-08-21T11:34:21;4.60;;;1.60;;
68870;SDS011;55906;52.278;6.808;2022-08-21T11:37:04;5.57;;;1.50;;
68870;SDS011;55906;52.278;6.808;2022-08-21T11:39:40;5.03;;;1.30;;
68870;SDS011;55906;52.278;6.808;2022-08-21T11:42:16;6.95;;;1.90;;
68870;SDS011;55906;52.278;6.808;2022-08-21T11:44:53;7.40;;;2.00;;
68870;SDS011;55906;52.278;6.808;2022-08-21T11:47:32;5.78;;;1.60;;
68870;SDS011;55906;52.278;6.808;2022-08-21T11:50:14;7.35;;;2.13;;
68870;SDS011;55906;52.278;6.808;2022-08-21T11:52:43;7.03;;;2.13;;
68870;SDS011;55906;52.278;6.808;2022-08-21T11:55:15;5.90;;;1.85;;
68870;SDS011;55906;52.278;6.808;2022-08-21T11:57:50;7.60;;;2.37;;
68870;SDS011;55906;52.278;6.808;2022-08-21T12:00:20;6.38;;;1.80;;
68870;SDS011;55906;52.278;6.808;2022-08-21T12:02:53;6.68;;;1.80;;
68870;SDS011;55906;52.278;6.808;2022-08-21T12:05:23;6.85;;;2.00;;
68870;SDS011;55906;52.278;6.808;2022-08-21T12:07:59;7.18;;;1.92;;
68870;SDS011;55906;52.278;6.808;2022-08-21T12:10:31;7.37;;;2.10;;
68870;SDS011;55906;52.278;6.808;2022-08-21T12:13:07;7.32;;;1.90;;
68870;SDS011;55906;52.278;6.808;2022-08-21T12:15:39;6.15;;;1.95;;
68870;SDS011;55906;52.278;6.808;2022-08-21T12:18:18;6.97;;;1.90;;
68870;SDS011;55906;52.278;6.808;2022-08-21T12:20:57;5.65;;;1.77;;
68870;SDS011;55906;52.278;6.808;2022-08-21T12:23:28;7.43;;;1.90;;
68870;SDS011;55906;52.278;6.808;2022-08-21T12:26:01;7.20;;;2.28;;
68870;SDS011;55906;52.278;6.808;2022-08-21T12:28:31;4.80;;;1.75;;
68870;SDS011;55906;52.278;6.808;2022-08-21T12:30:59;6.30;;;1.90;;
68870;SDS011;55906;52.278;6.808;2022-08-21T12:33:27;7.45;;;2.20;;
68870;SDS011;55906;52.278;6.808;2022-08-21T12:36:02;5.60;;;2.00;;
68870;SDS011;55906;52.278;6.808;2022-08-21T12:38:33;6.15;;;1.80;;
68870;SDS011;55906;52.278;6.808;2022-08-21T12:41:10;4.95;;;1.95;;
68870;SDS011;55906;52.278;6.808;2022-08-21T12:43:47;7.07;;;2.00;;
68870;SDS011;55906;52.278;6.808;2022-08-21T12:46:18;5.38;;;1.90;;
68870;SDS011;55906;52.278;6.808;2022-08-21T12:48:49;6.53;;;1.80;;
68870;SDS011;55906;52.278;6.808;2022-08-21T12:51:18;5.15;;;1.60;;
68870;SDS011;55906;52.278;6.808;2022-08-21T12:53:50;5.50;;;1.67;;
68870;SDS011;55906;52.278;6.808;2022-08-21T12:56:19;8.98;;;1.80;;
68870;SDS011;55906;52.278;6.808;2022-08-21T12:58:50;7.70;;;2.00;;
68870;SDS011;55906;52.278;6.808;2022-08-21T13:01:21;5.70;;;1.77;;
68870;SDS011;55906;52.278;6.808;2022-08-21T13:03:50;5.63;;;1.60;;
68870;SDS011;55906;52.278;6.808;2022-08-21T13:06:20;5.75;;;1.50;;
68870;SDS011;55906;52.278;6.808;2022-08-21T13:08:50;4.38;;;1.20;;
68870;SDS011;55906;52.278;6.808;2022-08-21T13:11:22;6.07;;;1.52;;
68870;SDS011;55906;52.278;6.808;2022-08-21T13:13:51;5.60;;;1.53;;
68870;SDS011;55906;52.278;6.808;2022-08-21T13:16:20;5.18;;;1.58;;
68870;SDS011;55906;52.278;6.808;2022-08-21T13:18:56;5.88;;;1.50;;
68870;SDS011;55906;52.278;6.808;2022-08-21T13:21:27;5.18;;;1.50;;
68870;SDS011;55906;52.278;6.808;2022-08-21T13:24:07;5.35;;;1.50;;
68870;SDS011;55906;52.278;6.808;2022-08-21T13:26:38;4.13;;;1.40;;
68870;SDS011;55906;52.278;6.808;2022-08-21T13:29:07;4.30;;;1.50;;
68870;SDS011;55906;52.278;6.808;2022-08-21T13:31:36;5.30;;;1.60;;
68870;SDS011;55906;52.278;6.808;2022-08-21T13:34:07;6.30;;;1.73;;
68870;SDS011;55906;52.278;6.808;2022-08-21T13:36:36;7.05;;;1.95;;
68870;SDS011;55906;52.278;6.808;2022-08-21T13:39:07;5.47;;;1.97;;
68870;SDS011;55906;52.278;6.808;2022-08-21T13:41:38;5.68;;;1.70;;
68870;SDS011;55906;52.278;6.808;2022-08-21T13:44:15;5.88;;;1.50;;
68870;SDS011;55906;52.278;6.808;2022-08-21T13:46:44;3.78;;;1.38;;
68870;SDS011;55906;52.278;6.808;2022-08-21T13:49:13;4.32;;;1.20;;
68870;SDS011;55906;52.278;6.808;2022-08-21T13:51:42;4.60;;;1.40;;
68870;SDS011;55906;52.278;6.808;2022-08-21T13:54:15;5.35;;;1.23;;
68870;SDS011;55906;52.278;6.808;2022-08-21T13:56:46;4.18;;;1.17;;
68870;SDS011;55906;52.278;6.808;2022-08-21T13:59:24;4.88;;;1.20;;
68870;SDS011;55906;52.278;6.808;2022-08-21T14:01:53;5.43;;;1.50;;
68870;SDS011;55906;52.278;6.808;2022-08-21T14:04:25;4.03;;;1.10;;
68870;SDS011;55906;52.278;6.808;2022-08-21T14:06:57;4.78;;;1.25;;
68870;SDS011;55906;52.278;6.808;2022-08-21T14:09:26;4.65;;;1.30;;
68870;SDS011;55906;52.278;6.808;2022-08-21T14:11:56;5.20;;;1.20;;
68870;SDS011;55906;52.278;6.808;2022-08-21T14:14:26;4.78;;;1.30;;
68870;SDS011;55906;52.278;6.808;2022-08-21T14:16:56;4.00;;;1.20;;
68870;SDS011;55906;52.278;6.808;2022-08-21T14:19:25;4.60;;;1.10;;
68870;SDS011;55906;52.278;6.808;2022-08-21T14:22:01;4.97;;;1.17;;
68870;SDS011;55906;52.278;6.808;2022-08-21T14:24:29;3.97;;;0.90;;
68870;SDS011;55906;52.278;6.808;2022-08-21T14:26:57;3.80;;;1.10;;
68870;SDS011;55906;52.278;6.808;2022-08-21T14:29:32;4.37;;;1.47;;
68870;SDS011;55906;52.278;6.808;2022-08-21T14:32:12;5.38;;;1.50;;
68870;SDS011;55906;52.278;6.808;2022-08-21T14:34:41;5.35;;;1.63;;
68870;SDS011;55906;52.278;6.808;2022-08-21T14:37:07;5.57;;;1.33;;
68870;SDS011;55906;52.278;6.808;2022-08-21T14:39:34;4.85;;;1.40;;
68870;SDS011;55906;52.278;6.808;2022-08-21T14:42:00;5.83;;;1.60;;
68870;SDS011;55906;52.278;6.808;2022-08-21T14:44:28;4.97;;;1.40;;
68870;SDS011;55906;52.278;6.808;2022-08-21T14:46:58;5.07;;;1.52;;
68870;SDS011;55906;52.278;6.808;2022-08-21T14:49:26;5.15;;;1.60;;
68870;SDS011;55906;52.278;6.808;2022-08-21T14:51:54;5.43;;;1.30;;
68870;SDS011;55906;52.278;6.808;2022-08-21T14:54:22;4.03;;;1.30;;
68870;SDS011;55906;52.278;6.808;2022-08-21T14:56:48;4.22;;;1.30;;
68870;SDS011;55906;52.278;6.808;2022-08-21T14:59:16;7.78;;;1.50;;
68870;SDS011;55906;52.278;6.808;2022-08-21T15:01:46;3.70;;;1.40;;
68870;SDS011;55906;52.278;6.808;2022-08-21T15:04:14;6.45;;;1.30;;